sensor_id;sensor_type;location;lat;lon;timestamp;P1;durP1;ratioP1;P2;durP2;ratioP2
22219;SDS011;11279;48.364;10.904;2023-04-23T00:00:51;9.23;;;4.00;;
22219;SDS011;11279;48.364;10.904;2023-04-23T00:01:53;7.68;;;3.75;;
22219;SDS011;11279;48.364;10.904;2023-04-23T00:02:56;10.05;;;3.92;;
22219;SDS011;11279;48.364;10.904;2023-04-23T00:03:57;10.57;;;4.03;;
22219;SDS011;11279;48.364;10.904;2023-04-23T00:05:01;6.78;;;4.20;;
22219;SDS011;11279;48.364;10.904;2023-04-23T00:06:06;7.15;;;4.05;;
22219;SDS011;11279;48.364;10.904;2023-04-23T00:07:09;7.40;;;4.05;;
22219;SDS011;11279;48.364;10.904;2023-04-23T00:08:09;14.73;;;4.20;;
22219;SDS011;11279;48.364;10.904;2023-04-23T00:09:10;9.47;;;4.60;;
22219;SDS011;11279;48.364;10.904;2023-04-23T00:10:13;7.68;;;4.40;;
22219;SDS011;11279;48.364;10.904;2023-04-23T00:11:13;9.03;;;3.97;;
22219;SDS011;11279;48.364;10.904;2023-04-23T00:12:14;9.37;;;4.03;;
22219;SDS011;11279;48.364;10.904;2023-04-23T00:13:15;7.20;;;4.27;;
22219;SDS011;11279;48.364;10.904;2023-04-23T00:14:15;11.00;;;4.60;;
22219;SDS011;11279;48.364;10.904;2023-04-23T00:15:16;8.60;;;4.37;;
22219;SDS011;11279;48.364;10.904;2023-04-23T00:16:17;11.93;;;4.55;;
22219;SDS011;11279;48.364;10.904;2023-04-23T00:17:19;6.78;;;3.97;;
22219;SDS011;11279;48.364;10.904;2023-04-23T00:18:19;7.93;;;4.53;;
22219;SDS011;11279;48.364;10.904;2023-04-23T00:19:20;7.27;;;4.30;;
22219;SDS011;11279;48.364;10.904;2023-04-23T00:20:20;8.00;;;4.20;;
22219;SDS011;11279;48.364;10.904;2023-04-23T00:21:21;9.43;;;4.43;;
22219;SDS011;11279;48.364;10.904;2023-04-23T00:22:22;8.23;;;4.40;;
22219;SDS011;11279;48.364;10.904;2023-04-23T00:23:22;8.57;;;4.20;;
22219;SDS011;11279;48.364;10.904;2023-04-23T00:24:23;7.17;;;4.43;;
22219;SDS011;11279;48.364;10.904;2023-04-23T00:25:23;10.67;;;4.57;;
22219;SDS011;11279;48.364;10.904;2023-04-23T00:26:23;7.87;;;4.07;;
22219;SDS011;11279;48.364;10.904;2023-04-23T00:27:24;6.57;;;4.10;;
22219;SDS011;11279;48.364;10.904;2023-04-23T00:28:25;6.77;;;4.40;;
22219;SDS011;11279;48.364;10.904;2023-04-23T00:29:25;10.10;;;4.33;;
22219;SDS011;11279;48.364;10.904;2023-04-23T00:30:25;8.63;;;4.33;;
22219;SDS011;11279;48.364;10.904;2023-04-23T00:31:26;8.37;;;4.10;;
22219;SDS011;11279;48.364;10.904;2023-04-23T00:32:26;8.87;;;4.30;;
22219;SDS011;11279;48.364;10.904;2023-04-23T00:33:27;7.43;;;4.10;;
22219;SDS011;11279;48.364;10.904;2023-04-23T00:34:27;7.10;;;3.97;;
22219;SDS011;11279;48.364;10.904;2023-04-23T00:35:27;7.23;;;3.93;;
22219;SDS011;11279;48.364;10.904;2023-04-23T00:36:28;7.23;;;4.07;;
22219;SDS011;11279;48.364;10.904;2023-04-23T00:37:28;8.10;;;3.87;;
22219;SDS011;11279;48.364;10.904;2023-04-23T00:38:29;7.90;;;3.80;;
22219;SDS011;11279;48.364;10.904;2023-04-23T00:39:29;8.40;;;4.27;;
22219;SDS011;11279;48.364;10.904;2023-04-23T00:40:30;9.00;;;4.50;;
22219;SDS011;11279;48.364;10.904;2023-04-23T00:41:30;7.97;;;4.47;;
22219;SDS011;11279;48.364;10.904;2023-04-23T00:42:31;6.23;;;3.77;;
22219;SDS011;11279;48.364;10.904;2023-04-23T00:43:31;8.47;;;4.00;;
22219;SDS011;11279;48.364;10.904;2023-04-23T00:44:32;6.38;;;4.00;;
22219;SDS011;11279;48.364;10.904;2023-04-23T00:45:33;7.70;;;4.60;;
22219;SDS011;11279;48.364;10.904;2023-04-23T00:46:34;7.53;;;4.23;;
22219;SDS011;11279;48.364;10.904;2023-04-23T00:47:34;8.60;;;4.05;;
22219;SDS011;11279;48.364;10.904;2023-04-23T00:48:36;9.70;;;4.83;;
22219;SDS011;11279;48.364;10.904;2023-04-23T00:49:36;6.13;;;4.00;;
22219;SDS011;11279;48.364;10.904;2023-04-23T00:50:38;10.20;;;4.18;;
22219;SDS011;11279;48.364;10.904;2023-04-23T00:51:38;10.03;;;4.20;;
22219;SDS011;11279;48.364;10.904;2023-04-23T00:52:39;9.13;;;4.50;;
22219;SDS011;11279;48.364;10.904;2023-04-23T00:53:40;7.10;;;3.93;;
22219;SDS011;11279;48.364;10.904;2023-04-23T00:54:40;8.53;;;4.20;;
22219;SDS011;11279;48.364;10.904;2023-04-23T00:55:40;7.20;;;3.80;;
22219;SDS011;11279;48.364;10.904;2023-04-23T00:56:41;8.63;;;4.50;;
22219;SDS011;11279;48.364;10.904;2023-04-23T00:57:42;7.00;;;4.57;;
22219;SDS011;11279;48.364;10.904;2023-04-23T00:58:43;10.17;;;3.93;;
22219;SDS011;11279;48.364;10.904;2023-04-23T00:59:43;7.93;;;4.10;;
22219;SDS011;11279;48.364;10.904;2023-04-23T01:00:44;8.97;;;4.60;;
22219;SDS011;11279;48.364;10.904;2023-04-23T01:01:46;7.22;;;4.13;;
22219;SDS011;11279;48.364;10.904;2023-04-23T01:02:47;8.75;;;4.60;;
22219;SDS011;11279;48.364;10.904;2023-04-23T01:03:50;6.97;;;3.85;;
22219;SDS011;11279;48.364;10.904;2023-04-23T01:04:51;9.20;;;3.85;;
22219;SDS011;11279;48.364;10.904;2023-04-23T01:05:53;7.13;;;4.03;;
22219;SDS011;11279;48.364;10.904;2023-04-23T01:06:54;6.93;;;4.47;;
22219;SDS011;11279;48.364;10.904;2023-04-23T01:07:55;7.10;;;4.23;;
22219;SDS011;11279;48.364;10.904;2023-04-23T01:08:56;7.65;;;4.40;;
22219;SDS011;11279;48.364;10.904;2023-04-23T01:09:56;9.00;;;4.53;;
22219;SDS011;11279;48.364;10.904;2023-04-23T01:10:57;8.50;;;3.90;;
22219;SDS011;11279;48.364;10.904;2023-04-23T01:11:57;9.23;;;4.73;;
22219;SDS011;11279;48.364;10.904;2023-04-23T01:12:59;9.45;;;4.03;;
22219;SDS011;11279;48.364;10.904;2023-04-23T01:13:59;8.37;;;4.17;;
22219;SDS011;11279;48.364;10.904;2023-04-23T01:15:00;9.03;;;4.53;;
22219;SDS011;11279;48.364;10.904;2023-04-23T01:16:00;6.37;;;3.83;;
22219;SDS011;11279;48.364;10.904;2023-04-23T01:17:01;8.30;;;4.27;;
22219;SDS011;11279;48.364;10.904;2023-04-23T01:18:02;9.10;;;4.20;;
22219;SDS011;11279;48.364;10.904;2023-04-23T01:19:04;6.40;;;4.22;;
22219;SDS011;11279;48.364;10.904;2023-04-23T01:20:06;6.70;;;4.05;;
22219;SDS011;11279;48.364;10.904;2023-04-23T01:21:07;8.88;;;4.10;;
22219;SDS011;11279;48.364;10.904;2023-04-23T01:22:11;8.30;;;4.25;;
22219;SDS011;11279;48.364;10.904;2023-04-23T01:23:12;8.13;;;4.10;;
22219;SDS011;11279;48.364;10.904;2023-04-23T01:24:13;6.53;;;3.93;;
22219;SDS011;11279;48.364;10.904;2023-04-23T01:25:13;6.13;;;4.23;;
22219;SDS011;11279;48.364;10.904;2023-04-23T01:26:14;8.37;;;3.90;;
22219;SDS011;11279;48.364;10.904;2023-04-23T01:27:14;8.97;;;4.70;;
22219;SDS011;11279;48.364;10.904;2023-04-23T01:28:15;6.70;;;4.23;;
22219;SDS011;11279;48.364;10.904;2023-04-23T01:29:15;6.50;;;3.90;;
22219;SDS011;11279;48.364;10.904;2023-04-23T01:30:16;7.00;;;4.00;;
22219;SDS011;11279;48.364;10.904;2023-04-23T01:31:16;6.80;;;4.30;;
22219;SDS011;11279;48.364;10.904;2023-04-23T01:32:17;7.43;;;4.10;;
22219;SDS011;11279;48.364;10.904;2023-04-23T01:33:18;10.33;;;4.60;;
22219;SDS011;11279;48.364;10.904;2023-04-23T01:34:19;7.43;;;4.47;;
22219;SDS011;11279;48.364;10.904;2023-04-23T01:35:21;8.43;;;4.43;;
22219;SDS011;11279;48.364;10.904;2023-04-23T01:36:22;9.02;;;4.35;;
22219;SDS011;11279;48.364;10.904;2023-04-23T01:37:22;7.72;;;3.92;;
22219;SDS011;11279;48.364;10.904;2023-04-23T01:38:23;11.47;;;4.73;;
22219;SDS011;11279;48.364;10.904;2023-04-23T01:39:24;6.40;;;4.27;;
22219;SDS011;11279;48.364;10.904;2023-04-23T01:40:25;7.17;;;4.17;;
22219;SDS011;11279;48.364;10.904;2023-04-23T01:41:25;6.67;;;4.30;;
22219;SDS011;11279;48.364;10.904;2023-04-23T01:42:26;6.57;;;3.90;;
22219;SDS011;11279;48.364;10.904;2023-04-23T01:43:26;7.17;;;4.07;;
22219;SDS011;11279;48.364;10.904;2023-04-23T01:44:27;6.40;;;3.87;;
22219;SDS011;11279;48.364;10.904;2023-04-23T01:45:28;7.57;;;4.37;;
22219;SDS011;11279;48.364;10.904;2023-04-23T01:46:29;8.43;;;4.20;;
22219;SDS011;11279;48.364;10.904;2023-04-23T01:47:30;9.53;;;3.97;;
22219;SDS011;11279;48.364;10.904;2023-04-23T01:48:31;8.17;;;4.33;;
22219;SDS011;11279;48.364;10.904;2023-04-23T01:49:31;7.77;;;4.13;;
22219;SDS011;11279;48.364;10.904;2023-04-23T01:50:31;5.57;;;3.83;;
22219;SDS011;11279;48.364;10.904;2023-04-23T01:51:32;9.20;;;4.10;;
22219;SDS011;11279;48.364;10.904;2023-04-23T01:52:32;6.00;;;3.57;;
22219;SDS011;11279;48.364;10.904;2023-04-23T01:53:33;6.23;;;4.23;;
22219;SDS011;11279;48.364;10.904;2023-04-23T01:54:33;7.63;;;4.17;;
22219;SDS011;11279;48.364;10.904;2023-04-23T01:55:35;7.33;;;4.63;;
22219;SDS011;11279;48.364;10.904;2023-04-23T01:56:37;6.68;;;3.95;;
22219;SDS011;11279;48.364;10.904;2023-04-23T01:57:37;7.07;;;3.83;;
22219;SDS011;11279;48.364;10.904;2023-04-23T01:58:38;8.97;;;4.23;;
22219;SDS011;11279;48.364;10.904;2023-04-23T01:59:39;10.00;;;4.77;;
22219;SDS011;11279;48.364;10.904;2023-04-23T02:00:40;8.20;;;4.30;;
22219;SDS011;11279;48.364;10.904;2023-04-23T02:01:43;9.10;;;3.60;;
22219;SDS011;11279;48.364;10.904;2023-04-23T02:02:45;6.53;;;4.18;;
22219;SDS011;11279;48.364;10.904;2023-04-23T02:03:45;8.10;;;4.03;;
22219;SDS011;11279;48.364;10.904;2023-04-23T02:04:46;11.00;;;3.90;;
22219;SDS011;11279;48.364;10.904;2023-04-23T02:05:47;7.40;;;3.72;;
22219;SDS011;11279;48.364;10.904;2023-04-23T02:06:50;9.45;;;4.25;;
22219;SDS011;11279;48.364;10.904;2023-04-23T02:07:50;8.47;;;4.40;;
22219;SDS011;11279;48.364;10.904;2023-04-23T02:08:51;7.13;;;4.10;;
22219;SDS011;11279;48.364;10.904;2023-04-23T02:09:51;7.57;;;4.20;;
22219;SDS011;11279;48.364;10.904;2023-04-23T02:10:52;8.67;;;3.87;;
22219;SDS011;11279;48.364;10.904;2023-04-23T02:11:53;6.83;;;4.20;;
22219;SDS011;11279;48.364;10.904;2023-04-23T02:12:53;8.00;;;3.73;;
22219;SDS011;11279;48.364;10.904;2023-04-23T02:13:54;5.47;;;3.67;;
22219;SDS011;11279;48.364;10.904;2023-04-23T02:14:54;5.87;;;3.70;;
22219;SDS011;11279;48.364;10.904;2023-04-23T02:15:55;8.00;;;4.30;;
22219;SDS011;11279;48.364;10.904;2023-04-23T02:16:55;8.33;;;4.20;;
22219;SDS011;11279;48.364;10.904;2023-04-23T02:17:56;6.43;;;4.18;;
22219;SDS011;11279;48.364;10.904;2023-04-23T02:18:57;6.87;;;3.87;;
22219;SDS011;11279;48.364;10.904;2023-04-23T02:19:57;9.03;;;3.90;;
22219;SDS011;11279;48.364;10.904;2023-04-23T02:20:58;11.47;;;4.30;;
22219;SDS011;11279;48.364;10.904;2023-04-23T02:21:58;7.83;;;4.00;;
22219;SDS011;11279;48.364;10.904;2023-04-23T02:22:59;8.53;;;4.03;;
22219;SDS011;11279;48.364;10.904;2023-04-23T02:24:00;10.90;;;4.50;;
22219;SDS011;11279;48.364;10.904;2023-04-23T02:25:01;9.20;;;4.20;;
22219;SDS011;11279;48.364;10.904;2023-04-23T02:26:01;6.87;;;4.17;;
22219;SDS011;11279;48.364;10.904;2023-04-23T02:27:01;9.73;;;4.23;;
22219;SDS011;11279;48.364;10.904;2023-04-23T02:28:03;10.70;;;4.47;;
22219;SDS011;11279;48.364;10.904;2023-04-23T02:29:06;6.45;;;3.97;;
22219;SDS011;11279;48.364;10.904;2023-04-23T02:30:06;6.77;;;4.03;;
22219;SDS011;11279;48.364;10.904;2023-04-23T02:31:08;10.70;;;4.50;;
22219;SDS011;11279;48.364;10.904;2023-04-23T02:32:08;6.47;;;3.70;;
22219;SDS011;11279;48.364;10.904;2023-04-23T02:33:09;7.00;;;4.00;;
22219;SDS011;11279;48.364;10.904;2023-04-23T02:34:09;7.67;;;4.37;;
22219;SDS011;11279;48.364;10.904;2023-04-23T02:35:10;9.77;;;4.43;;
22219;SDS011;11279;48.364;10.904;2023-04-23T02:36:11;7.28;;;4.13;;
22219;SDS011;11279;48.364;10.904;2023-04-23T02:37:12;6.57;;;4.27;;
22219;SDS011;11279;48.364;10.904;2023-04-23T02:38:12;7.63;;;3.90;;
22219;SDS011;11279;48.364;10.904;2023-04-23T02:39:12;6.07;;;4.00;;
22219;SDS011;11279;48.364;10.904;2023-04-23T02:40:13;9.57;;;4.57;;
22219;SDS011;11279;48.364;10.904;2023-04-23T02:41:13;8.07;;;4.20;;
22219;SDS011;11279;48.364;10.904;2023-04-23T02:42:14;6.50;;;4.07;;
22219;SDS011;11279;48.364;10.904;2023-04-23T02:43:14;7.13;;;4.07;;
22219;SDS011;11279;48.364;10.904;2023-04-23T02:44:15;7.00;;;4.33;;
22219;SDS011;11279;48.364;10.904;2023-04-23T02:45:15;10.13;;;4.33;;
22219;SDS011;11279;48.364;10.904;2023-04-23T02:46:16;5.93;;;3.70;;
22219;SDS011;11279;48.364;10.904;2023-04-23T02:47:16;6.70;;;3.97;;
22219;SDS011;11279;48.364;10.904;2023-04-23T02:48:16;5.10;;;3.50;;
22219;SDS011;11279;48.364;10.904;2023-04-23T02:49:17;8.50;;;3.53;;
22219;SDS011;11279;48.364;10.904;2023-04-23T02:50:21;7.78;;;4.30;;
22219;SDS011;11279;48.364;10.904;2023-04-23T02:51:21;9.33;;;4.13;;
22219;SDS011;11279;48.364;10.904;2023-04-23T02:52:21;10.03;;;4.17;;
22219;SDS011;11279;48.364;10.904;2023-04-23T02:53:22;6.63;;;4.03;;
22219;SDS011;11279;48.364;10.904;2023-04-23T02:54:23;6.27;;;4.17;;
22219;SDS011;11279;48.364;10.904;2023-04-23T02:55:23;7.50;;;4.07;;
22219;SDS011;11279;48.364;10.904;2023-04-23T02:56:24;7.60;;;4.13;;
22219;SDS011;11279;48.364;10.904;2023-04-23T02:57:25;9.00;;;4.17;;
22219;SDS011;11279;48.364;10.904;2023-04-23T02:58:25;7.60;;;4.03;;
22219;SDS011;11279;48.364;10.904;2023-04-23T02:59:26;8.60;;;3.97;;
22219;SDS011;11279;48.364;10.904;2023-04-23T03:00:26;6.63;;;3.63;;
22219;SDS011;11279;48.364;10.904;2023-04-23T03:01:27;8.23;;;4.17;;
22219;SDS011;11279;48.364;10.904;2023-04-23T03:02:27;6.83;;;4.57;;
22219;SDS011;11279;48.364;10.904;2023-04-23T03:03:28;5.87;;;4.03;;
22219;SDS011;11279;48.364;10.904;2023-04-23T03:04:30;6.60;;;4.00;;
22219;SDS011;11279;48.364;10.904;2023-04-23T03:05:31;8.03;;;4.17;;
22219;SDS011;11279;48.364;10.904;2023-04-23T03:06:31;8.10;;;4.83;;
22219;SDS011;11279;48.364;10.904;2023-04-23T03:07:33;8.90;;;4.60;;
22219;SDS011;11279;48.364;10.904;2023-04-23T03:08:33;7.43;;;4.60;;
22219;SDS011;11279;48.364;10.904;2023-04-23T03:09:34;9.30;;;4.80;;
22219;SDS011;11279;48.364;10.904;2023-04-23T03:10:34;6.97;;;4.37;;
22219;SDS011;11279;48.364;10.904;2023-04-23T03:11:35;7.50;;;4.97;;
22219;SDS011;11279;48.364;10.904;2023-04-23T03:12:35;7.87;;;4.50;;
22219;SDS011;11279;48.364;10.904;2023-04-23T03:13:36;7.87;;;4.97;;
22219;SDS011;11279;48.364;10.904;2023-04-23T03:14:36;8.60;;;4.83;;
22219;SDS011;11279;48.364;10.904;2023-04-23T03:15:37;7.60;;;4.80;;
22219;SDS011;11279;48.364;10.904;2023-04-23T03:16:37;7.80;;;4.80;;
22219;SDS011;11279;48.364;10.904;2023-04-23T03:17:38;7.60;;;4.40;;
22219;SDS011;11279;48.364;10.904;2023-04-23T03:18:38;8.60;;;5.50;;
22219;SDS011;11279;48.364;10.904;2023-04-23T03:19:39;12.10;;;5.20;;
22219;SDS011;11279;48.364;10.904;2023-04-23T03:20:39;11.50;;;5.10;;
22219;SDS011;11279;48.364;10.904;2023-04-23T03:21:40;9.13;;;4.70;;
22219;SDS011;11279;48.364;10.904;2023-04-23T03:22:40;6.93;;;4.57;;
22219;SDS011;11279;48.364;10.904;2023-04-23T03:23:41;7.10;;;4.33;;
22219;SDS011;11279;48.364;10.904;2023-04-23T03:24:41;6.03;;;4.30;;
22219;SDS011;11279;48.364;10.904;2023-04-23T03:25:41;6.83;;;4.13;;
22219;SDS011;11279;48.364;10.904;2023-04-23T03:26:42;7.10;;;4.83;;
22219;SDS011;11279;48.364;10.904;2023-04-23T03:27:42;5.97;;;4.00;;
22219;SDS011;11279;48.364;10.904;2023-04-23T03:28:43;5.37;;;4.00;;
22219;SDS011;11279;48.364;10.904;2023-04-23T03:29:44;9.37;;;4.87;;
22219;SDS011;11279;48.364;10.904;2023-04-23T03:30:44;6.70;;;4.00;;
22219;SDS011;11279;48.364;10.904;2023-04-23T03:31:45;10.40;;;4.80;;
22219;SDS011;11279;48.364;10.904;2023-04-23T03:32:45;8.23;;;4.30;;
22219;SDS011;11279;48.364;10.904;2023-04-23T03:33:45;5.97;;;3.80;;
22219;SDS011;11279;48.364;10.904;2023-04-23T03:34:46;6.63;;;3.60;;
22219;SDS011;11279;48.364;10.904;2023-04-23T03:35:46;6.03;;;3.90;;
22219;SDS011;11279;48.364;10.904;2023-04-23T03:36:47;7.37;;;4.17;;
22219;SDS011;11279;48.364;10.904;2023-04-23T03:37:48;6.47;;;4.10;;
22219;SDS011;11279;48.364;10.904;2023-04-23T03:38:48;7.43;;;3.70;;
22219;SDS011;11279;48.364;10.904;2023-04-23T03:39:48;9.17;;;4.50;;
22219;SDS011;11279;48.364;10.904;2023-04-23T03:40:50;7.75;;;4.00;;
22219;SDS011;11279;48.364;10.904;2023-04-23T03:41:50;7.37;;;3.97;;
22219;SDS011;11279;48.364;10.904;2023-04-23T03:42:51;10.60;;;4.53;;
22219;SDS011;11279;48.364;10.904;2023-04-23T03:43:51;6.67;;;4.27;;
22219;SDS011;11279;48.364;10.904;2023-04-23T03:44:52;9.17;;;4.00;;
22219;SDS011;11279;48.364;10.904;2023-04-23T03:45:52;6.60;;;3.83;;
22219;SDS011;11279;48.364;10.904;2023-04-23T03:46:52;6.20;;;4.07;;
22219;SDS011;11279;48.364;10.904;2023-04-23T03:47:53;10.77;;;4.37;;
22219;SDS011;11279;48.364;10.904;2023-04-23T03:48:53;5.90;;;4.00;;
22219;SDS011;11279;48.364;10.904;2023-04-23T03:49:55;8.53;;;4.70;;
22219;SDS011;11279;48.364;10.904;2023-04-23T03:50:56;8.75;;;4.28;;
22219;SDS011;11279;48.364;10.904;2023-04-23T03:51:57;7.18;;;4.05;;
22219;SDS011;11279;48.364;10.904;2023-04-23T03:52:57;7.13;;;4.60;;
22219;SDS011;11279;48.364;10.904;2023-04-23T03:53:57;7.50;;;4.17;;
22219;SDS011;11279;48.364;10.904;2023-04-23T03:54:58;7.77;;;4.13;;
22219;SDS011;11279;48.364;10.904;2023-04-23T03:55:58;7.97;;;4.33;;
22219;SDS011;11279;48.364;10.904;2023-04-23T03:56:59;6.63;;;4.40;;
22219;SDS011;11279;48.364;10.904;2023-04-23T03:58:01;7.78;;;4.15;;
22219;SDS011;11279;48.364;10.904;2023-04-23T03:59:02;5.18;;;3.88;;
22219;SDS011;11279;48.364;10.904;2023-04-23T04:00:05;6.57;;;4.33;;
22219;SDS011;11279;48.364;10.904;2023-04-23T04:01:12;5.18;;;3.75;;
22219;SDS011;11279;48.364;10.904;2023-04-23T04:02:12;8.47;;;4.00;;
22219;SDS011;11279;48.364;10.904;2023-04-23T04:03:12;12.53;;;4.77;;
22219;SDS011;11279;48.364;10.904;2023-04-23T04:04:13;7.90;;;4.03;;
22219;SDS011;11279;48.364;10.904;2023-04-23T04:05:14;9.60;;;4.87;;
22219;SDS011;11279;48.364;10.904;2023-04-23T04:06:14;7.00;;;4.67;;
22219;SDS011;11279;48.364;10.904;2023-04-23T04:07:15;7.53;;;4.50;;
22219;SDS011;11279;48.364;10.904;2023-04-23T04:08:15;8.27;;;4.43;;
22219;SDS011;11279;48.364;10.904;2023-04-23T04:09:16;9.60;;;4.60;;
22219;SDS011;11279;48.364;10.904;2023-04-23T04:10:16;8.90;;;4.57;;
22219;SDS011;11279;48.364;10.904;2023-04-23T04:11:17;6.40;;;4.53;;
22219;SDS011;11279;48.364;10.904;2023-04-23T04:12:17;7.97;;;4.87;;
22219;SDS011;11279;48.364;10.904;2023-04-23T04:13:17;7.97;;;5.13;;
22219;SDS011;11279;48.364;10.904;2023-04-23T04:14:19;7.70;;;4.70;;
22219;SDS011;11279;48.364;10.904;2023-04-23T04:15:20;7.85;;;4.70;;
22219;SDS011;11279;48.364;10.904;2023-04-23T04:16:20;8.47;;;4.47;;
22219;SDS011;11279;48.364;10.904;2023-04-23T04:17:20;8.10;;;4.43;;
22219;SDS011;11279;48.364;10.904;2023-04-23T04:18:21;9.80;;;5.17;;
22219;SDS011;11279;48.364;10.904;2023-04-23T04:19:21;8.13;;;4.80;;
22219;SDS011;11279;48.364;10.904;2023-04-23T04:20:22;6.40;;;4.27;;
22219;SDS011;11279;48.364;10.904;2023-04-23T04:21:22;7.17;;;4.47;;
22219;SDS011;11279;48.364;10.904;2023-04-23T04:22:23;10.23;;;4.80;;
22219;SDS011;11279;48.364;10.904;2023-04-23T04:23:23;7.90;;;4.77;;
22219;SDS011;11279;48.364;10.904;2023-04-23T04:24:24;8.70;;;5.23;;
22219;SDS011;11279;48.364;10.904;2023-04-23T04:25:24;8.03;;;4.63;;
22219;SDS011;11279;48.364;10.904;2023-04-23T04:26:27;10.23;;;5.18;;
22219;SDS011;11279;48.364;10.904;2023-04-23T04:27:28;10.20;;;5.23;;
22219;SDS011;11279;48.364;10.904;2023-04-23T04:28:29;6.60;;;4.83;;
22219;SDS011;11279;48.364;10.904;2023-04-23T04:29:29;8.10;;;4.63;;
22219;SDS011;11279;48.364;10.904;2023-04-23T04:30:30;11.03;;;5.60;;
22219;SDS011;11279;48.364;10.904;2023-04-23T04:31:30;9.63;;;4.97;;
22219;SDS011;11279;48.364;10.904;2023-04-23T04:32:31;10.00;;;5.20;;
22219;SDS011;11279;48.364;10.904;2023-04-23T04:33:32;9.67;;;5.70;;
22219;SDS011;11279;48.364;10.904;2023-04-23T04:34:34;8.50;;;5.45;;
22219;SDS011;11279;48.364;10.904;2023-04-23T04:35:38;8.90;;;5.20;;
22219;SDS011;11279;48.364;10.904;2023-04-23T04:36:38;9.53;;;6.20;;
22219;SDS011;11279;48.364;10.904;2023-04-23T04:37:39;7.77;;;5.33;;
22219;SDS011;11279;48.364;10.904;2023-04-23T04:38:39;8.60;;;5.53;;
22219;SDS011;11279;48.364;10.904;2023-04-23T04:39:40;10.40;;;5.68;;
22219;SDS011;11279;48.364;10.904;2023-04-23T04:40:41;8.23;;;5.63;;
22219;SDS011;11279;48.364;10.904;2023-04-23T04:41:42;9.03;;;5.47;;
22219;SDS011;11279;48.364;10.904;2023-04-23T04:42:42;7.20;;;5.00;;
22219;SDS011;11279;48.364;10.904;2023-04-23T04:43:43;11.60;;;5.50;;
22219;SDS011;11279;48.364;10.904;2023-04-23T04:44:44;8.70;;;5.25;;
22219;SDS011;11279;48.364;10.904;2023-04-23T04:45:44;10.90;;;6.63;;
22219;SDS011;11279;48.364;10.904;2023-04-23T04:46:45;12.07;;;6.10;;
22219;SDS011;11279;48.364;10.904;2023-04-23T04:47:45;8.93;;;5.90;;
22219;SDS011;11279;48.364;10.904;2023-04-23T04:48:46;10.27;;;6.00;;
22219;SDS011;11279;48.364;10.904;2023-04-23T04:49:46;10.35;;;5.82;;
22219;SDS011;11279;48.364;10.904;2023-04-23T04:50:47;10.17;;;5.40;;
22219;SDS011;11279;48.364;10.904;2023-04-23T04:51:48;8.63;;;5.80;;
22219;SDS011;11279;48.364;10.904;2023-04-23T04:52:48;9.50;;;5.90;;
22219;SDS011;11279;48.364;10.904;2023-04-23T04:53:49;7.27;;;5.13;;
22219;SDS011;11279;48.364;10.904;2023-04-23T04:54:49;9.60;;;5.57;;
22219;SDS011;11279;48.364;10.904;2023-04-23T04:55:50;10.60;;;5.60;;
22219;SDS011;11279;48.364;10.904;2023-04-23T04:56:50;8.87;;;5.50;;
22219;SDS011;11279;48.364;10.904;2023-04-23T04:57:52;8.33;;;5.53;;
22219;SDS011;11279;48.364;10.904;2023-04-23T04:58:52;9.90;;;5.85;;
22219;SDS011;11279;48.364;10.904;2023-04-23T04:59:53;9.73;;;5.40;;
22219;SDS011;11279;48.364;10.904;2023-04-23T05:00:54;9.90;;;6.00;;
22219;SDS011;11279;48.364;10.904;2023-04-23T05:01:55;10.30;;;5.73;;
22219;SDS011;11279;48.364;10.904;2023-04-23T05:02:56;8.93;;;5.47;;
22219;SDS011;11279;48.364;10.904;2023-04-23T05:03:56;10.35;;;6.40;;
22219;SDS011;11279;48.364;10.904;2023-04-23T05:04:58;9.63;;;5.95;;
22219;SDS011;11279;48.364;10.904;2023-04-23T05:05:58;11.60;;;6.40;;
22219;SDS011;11279;48.364;10.904;2023-04-23T05:06:59;9.70;;;5.83;;
22219;SDS011;11279;48.364;10.904;2023-04-23T05:07:59;8.67;;;5.60;;
22219;SDS011;11279;48.364;10.904;2023-04-23T05:09:01;8.88;;;5.97;;
22219;SDS011;11279;48.364;10.904;2023-04-23T05:10:01;10.53;;;6.20;;
22219;SDS011;11279;48.364;10.904;2023-04-23T05:11:02;10.87;;;6.47;;
22219;SDS011;11279;48.364;10.904;2023-04-23T05:12:03;12.50;;;6.07;;
22219;SDS011;11279;48.364;10.904;2023-04-23T05:13:06;10.18;;;6.50;;
22219;SDS011;11279;48.364;10.904;2023-04-23T05:14:06;10.17;;;6.20;;
22219;SDS011;11279;48.364;10.904;2023-04-23T05:15:07;12.10;;;6.37;;
22219;SDS011;11279;48.364;10.904;2023-04-23T05:16:09;13.73;;;7.07;;
22219;SDS011;11279;48.364;10.904;2023-04-23T05:17:11;13.82;;;7.00;;
22219;SDS011;11279;48.364;10.904;2023-04-23T05:18:12;10.68;;;6.00;;
22219;SDS011;11279;48.364;10.904;2023-04-23T05:19:12;13.53;;;6.53;;
22219;SDS011;11279;48.364;10.904;2023-04-23T05:20:13;9.17;;;6.27;;
22219;SDS011;11279;48.364;10.904;2023-04-23T05:21:14;11.70;;;6.33;;
22219;SDS011;11279;48.364;10.904;2023-04-23T05:22:14;12.90;;;6.63;;
22219;SDS011;11279;48.364;10.904;2023-04-23T05:23:17;11.00;;;6.28;;
22219;SDS011;11279;48.364;10.904;2023-04-23T05:24:17;11.20;;;6.53;;
22219;SDS011;11279;48.364;10.904;2023-04-23T05:25:18;10.93;;;7.00;;
22219;SDS011;11279;48.364;10.904;2023-04-23T05:26:18;11.30;;;6.17;;
22219;SDS011;11279;48.364;10.904;2023-04-23T05:27:19;10.85;;;6.13;;
22219;SDS011;11279;48.364;10.904;2023-04-23T05:28:20;10.60;;;6.47;;
22219;SDS011;11279;48.364;10.904;2023-04-23T05:29:20;10.60;;;6.30;;
22219;SDS011;11279;48.364;10.904;2023-04-23T05:30:21;11.63;;;6.37;;
22219;SDS011;11279;48.364;10.904;2023-04-23T05:31:21;10.80;;;6.27;;
22219;SDS011;11279;48.364;10.904;2023-04-23T05:32:22;10.27;;;5.80;;
22219;SDS011;11279;48.364;10.904;2023-04-23T05:33:22;10.13;;;6.17;;
22219;SDS011;11279;48.364;10.904;2023-04-23T05:34:23;9.03;;;5.47;;
22219;SDS011;11279;48.364;10.904;2023-04-23T05:35:23;9.50;;;6.20;;
22219;SDS011;11279;48.364;10.904;2023-04-23T05:36:23;8.90;;;5.73;;
22219;SDS011;11279;48.364;10.904;2023-04-23T05:37:24;11.75;;;6.85;;
22219;SDS011;11279;48.364;10.904;2023-04-23T05:38:25;11.97;;;6.43;;
22219;SDS011;11279;48.364;10.904;2023-04-23T05:39:25;11.30;;;6.70;;
22219;SDS011;11279;48.364;10.904;2023-04-23T05:40:26;10.53;;;6.37;;
22219;SDS011;11279;48.364;10.904;2023-04-23T05:41:26;10.60;;;6.20;;
22219;SDS011;11279;48.364;10.904;2023-04-23T05:42:27;9.67;;;5.67;;
22219;SDS011;11279;48.364;10.904;2023-04-23T05:43:27;12.23;;;6.20;;
22219;SDS011;11279;48.364;10.904;2023-04-23T05:44:28;10.70;;;6.10;;
22219;SDS011;11279;48.364;10.904;2023-04-23T05:45:28;9.57;;;6.40;;
22219;SDS011;11279;48.364;10.904;2023-04-23T05:46:29;8.50;;;5.63;;
22219;SDS011;11279;48.364;10.904;2023-04-23T05:47:29;10.50;;;5.80;;
22219;SDS011;11279;48.364;10.904;2023-04-23T05:48:30;9.60;;;5.50;;
22219;SDS011;11279;48.364;10.904;2023-04-23T05:49:30;8.83;;;5.40;;
22219;SDS011;11279;48.364;10.904;2023-04-23T05:50:31;8.63;;;5.83;;
22219;SDS011;11279;48.364;10.904;2023-04-23T05:51:31;10.40;;;5.60;;
22219;SDS011;11279;48.364;10.904;2023-04-23T05:52:31;7.67;;;5.33;;
22219;SDS011;11279;48.364;10.904;2023-04-23T05:53:34;8.25;;;5.70;;
22219;SDS011;11279;48.364;10.904;2023-04-23T05:54:35;10.00;;;5.57;;
22219;SDS011;11279;48.364;10.904;2023-04-23T05:55:35;10.30;;;6.20;;
22219;SDS011;11279;48.364;10.904;2023-04-23T05:56:36;8.80;;;5.20;;
22219;SDS011;11279;48.364;10.904;2023-04-23T05:57:37;10.43;;;5.43;;
22219;SDS011;11279;48.364;10.904;2023-04-23T05:58:37;9.15;;;4.70;;
22219;SDS011;11279;48.364;10.904;2023-04-23T05:59:38;8.60;;;5.57;;